sensor_id;sensor_type;location;lat;lon;timestamp;pressure;altitude;pressure_sealevel;temperature;humidity
13952;BME280;39535;52.192;9.886;2024-01-07T00:01:25;100823.84;;;2.72;84.09
13952;BME280;39535;52.192;9.886;2024-01-07T00:03:52;100830.78;;;2.76;85.37
13952;BME280;39535;52.192;9.886;2024-01-07T00:06:18;100801.69;;;2.82;85.71
13952;BME280;39535;52.192;9.886;2024-01-07T00:08:44;100802.66;;;2.89;84.63
13952;BME280;39535;52.192;9.886;2024-01-07T00:11:12;100824.13;;;2.89;83.30
13952;BME280;39535;52.192;9.886;2024-01-07T00:13:39;100858.44;;;2.84;82.90
13952;BME280;39535;52.192;9.886;2024-01-07T00:16:05;100867.72;;;2.77;83.45
13952;BME280;39535;52.192;9.886;2024-01-07T00:18:33;100877.22;;;2.78;82.96
13952;BME280;39535;52.192;9.886;2024-01-07T00:21:00;100877.97;;;2.72;83.12
13952;BME280;39535;52.192;9.886;2024-01-07T00:23:26;100877.09;;;2.73;83.20
13952;BME280;39535;52.192;9.886;2024-01-07T00:25:52;100886.59;;;2.74;82.79
13952;BME280;39535;52.192;9.886;2024-01-07T00:28:20;100890.91;;;2.75;82.70
13952;BME280;39535;52.192;9.886;2024-01-07T00:30:46;100892.59;;;2.75;83.12
13952;BME280;39535;52.192;9.886;2024-01-07T00:33:12;100893.50;;;2.77;82.76
13952;BME280;39535;52.192;9.886;2024-01-07T00:35:40;100901.16;;;2.72;82.49
13952;BME280;39535;52.192;9.886;2024-01-07T00:38:06;100917.50;;;2.73;82.25
13952;BME280;39535;52.192;9.886;2024-01-07T00:40:33;100918.22;;;2.67;82.59
13952;BME280;39535;52.192;9.886;2024-01-07T00:42:59;100920.81;;;2.67;83.09
13952;BME280;39535;52.192;9.886;2024-01-07T00:45:25;100916.38;;;2.60;83.13
13952;BME280;39535;52.192;9.886;2024-01-07T00:47:52;100915.53;;;2.61;82.95
13952;BME280;39535;52.192;9.886;2024-01-07T00:50:19;100918.94;;;2.60;83.00
13952;BME280;39535;52.192;9.886;2024-01-07T00:52:47;100929.22;;;2.58;82.54
13952;BME280;39535;52.192;9.886;2024-01-07T00:55:14;100929.91;;;2.51;83.41
13952;BME280;39535;52.192;9.886;2024-01-07T00:57:41;100920.50;;;2.53;83.14
13952;BME280;39535;52.192;9.886;2024-01-07T01:00:08;100928.16;;;2.49;83.22
13952;BME280;39535;52.192;9.886;2024-01-07T01:02:34;100922.06;;;2.45;83.45
13952;BME280;39535;52.192;9.886;2024-01-07T01:05:01;100909.16;;;2.45;84.00
13952;BME280;39535;52.192;9.886;2024-01-07T01:07:28;100908.22;;;2.40;84.33
13952;BME280;39535;52.192;9.886;2024-01-07T01:09:55;100905.69;;;2.43;84.57
13952;BME280;39535;52.192;9.886;2024-01-07T01:12:22;100911.78;;;2.47;83.96
13952;BME280;39535;52.192;9.886;2024-01-07T01:14:48;100913.56;;;2.49;83.74
13952;BME280;39535;52.192;9.886;2024-01-07T01:17:14;100911.66;;;2.41;83.77
13952;BME280;39535;52.192;9.886;2024-01-07T01:19:41;100912.59;;;2.44;84.05
13952;BME280;39535;52.192;9.886;2024-01-07T01:22:07;100910.97;;;2.49;83.83
13952;BME280;39535;52.192;9.886;2024-01-07T01:24:33;100917.88;;;2.50;83.37
13952;BME280;39535;52.192;9.886;2024-01-07T01:27:01;100940.34;;;2.56;82.64
13952;BME280;39535;52.192;9.886;2024-01-07T01:29:27;100955.63;;;2.48;82.36
13952;BME280;39535;52.192;9.886;2024-01-07T01:31:54;100961.56;;;2.44;82.60
13952;BME280;39535;52.192;9.886;2024-01-07T01:34:20;100971.84;;;2.44;82.56
13952;BME280;39535;52.192;9.886;2024-01-07T01:36:46;100971.84;;;2.44;82.53
13952;BME280;39535;52.192;9.886;2024-01-07T01:39:13;100979.59;;;2.46;82.55
13952;BME280;39535;52.192;9.886;2024-01-07T01:41:39;100970.16;;;2.45;82.88
13952;BME280;39535;52.192;9.886;2024-01-07T01:44:07;100994.16;;;2.42;82.40
13952;BME280;39535;52.192;9.886;2024-01-07T01:46:33;101008.69;;;2.40;82.16
13952;BME280;39535;52.192;9.886;2024-01-07T01:49:00;101007.88;;;2.43;82.24
13952;BME280;39535;52.192;9.886;2024-01-07T01:51:27;101006.13;;;2.40;82.88
13952;BME280;39535;52.192;9.886;2024-01-07T01:53:54;101005.25;;;2.41;82.11
13952;BME280;39535;52.192;9.886;2024-01-07T01:56:23;101019.63;;;2.31;81.90
13952;BME280;39535;52.192;9.886;2024-01-07T01:58:52;101041.00;;;2.27;80.82
13952;BME280;39535;52.192;9.886;2024-01-07T02:01:19;101052.00;;;2.22;81.52
13952;BME280;39535;52.192;9.886;2024-01-07T02:03:46;101055.44;;;2.21;81.33
13952;BME280;39535;52.192;9.886;2024-01-07T02:06:12;101065.81;;;2.24;80.99
13952;BME280;39535;52.192;9.886;2024-01-07T02:08:39;101075.81;;;2.11;81.96
13952;BME280;39535;52.192;9.886;2024-01-07T02:11:16;101067.09;;;2.06;81.77
13952;BME280;39535;52.192;9.886;2024-01-07T02:13:42;101063.69;;;2.07;81.45
13952;BME280;39535;52.192;9.886;2024-01-07T02:16:09;101056.91;;;2.11;81.87
13952;BME280;39535;52.192;9.886;2024-01-07T02:18:37;101056.19;;;2.16;82.40
13952;BME280;39535;52.192;9.886;2024-01-07T02:21:04;101061.34;;;2.16;81.22
13952;BME280;39535;52.192;9.886;2024-01-07T02:23:30;101076.31;;;1.98;82.27
13952;BME280;39535;52.192;9.886;2024-01-07T02:25:58;101068.88;;;2.09;82.55
13952;BME280;39535;52.192;9.886;2024-01-07T02:28:24;101073.94;;;2.06;81.62
13952;BME280;39535;52.192;9.886;2024-01-07T02:30:50;101085.91;;;2.04;81.13
13952;BME280;39535;52.192;9.886;2024-01-07T02:33:17;101078.94;;;1.99;81.70
13952;BME280;39535;52.192;9.886;2024-01-07T02:35:43;101075.75;;;2.08;81.69
13952;BME280;39535;52.192;9.886;2024-01-07T02:38:09;101085.09;;;2.05;81.61
13952;BME280;39535;52.192;9.886;2024-01-07T02:40:36;101088.34;;;1.99;80.95
13952;BME280;39535;52.192;9.886;2024-01-07T02:43:04;101125.09;;;1.93;80.13
13952;BME280;39535;52.192;9.886;2024-01-07T02:45:30;101127.41;;;1.84;80.24
13952;BME280;39535;52.192;9.886;2024-01-07T02:47:56;101132.78;;;1.92;80.23
13952;BME280;39535;52.192;9.886;2024-01-07T02:50:23;101141.41;;;1.94;80.67
13952;BME280;39535;52.192;9.886;2024-01-07T02:52:49;101148.94;;;1.86;80.88
13952;BME280;39535;52.192;9.886;2024-01-07T02:55:15;101147.38;;;1.91;80.57
13952;BME280;39535;52.192;9.886;2024-01-07T02:57:42;101155.88;;;1.89;80.30
13952;BME280;39535;52.192;9.886;2024-01-07T03:00:10;101167.97;;;1.91;79.92
13952;BME280;39535;52.192;9.886;2024-01-07T03:02:36;101171.28;;;1.87;79.78
13952;BME280;39535;52.192;9.886;2024-01-07T03:05:03;101175.56;;;1.87;80.38
13952;BME280;39535;52.192;9.886;2024-01-07T03:07:30;101171.28;;;1.87;79.99
13952;BME280;39535;52.192;9.886;2024-01-07T03:09:56;101167.66;;;1.81;80.90
13952;BME280;39535;52.192;9.886;2024-01-07T03:12:22;101158.25;;;1.81;80.98
13952;BME280;39535;52.192;9.886;2024-01-07T03:14:49;101157.44;;;1.84;80.73
13952;BME280;39535;52.192;9.886;2024-01-07T03:17:16;101161.78;;;1.85;81.07
13952;BME280;39535;52.192;9.886;2024-01-07T03:19:43;101153.94;;;1.82;81.35
13952;BME280;39535;52.192;9.886;2024-01-07T03:22:09;101149.66;;;1.81;81.67
13952;BME280;39535;52.192;9.886;2024-01-07T03:24:35;101146.22;;;1.82;81.55
13952;BME280;39535;52.192;9.886;2024-01-07T03:27:02;101133.84;;;1.68;82.29
13952;BME280;39535;52.192;9.886;2024-01-07T03:29:28;101131.25;;;1.68;82.34
13952;BME280;39535;52.192;9.886;2024-01-07T03:31:54;101128.78;;;1.71;81.64
13952;BME280;39535;52.192;9.886;2024-01-07T03:34:22;101133.94;;;1.71;80.82
13952;BME280;39535;52.192;9.886;2024-01-07T03:36:48;101144.34;;;1.76;81.21
13952;BME280;39535;52.192;9.886;2024-01-07T03:39:15;101153.88;;;1.78;80.91
13952;BME280;39535;52.192;9.886;2024-01-07T03:41:41;101163.25;;;1.76;80.91
13952;BME280;39535;52.192;9.886;2024-01-07T03:44:07;101170.88;;;1.73;80.55
13952;BME280;39535;52.192;9.886;2024-01-07T03:46:34;101171.63;;;1.69;81.34
13952;BME280;39535;52.192;9.886;2024-01-07T03:49:00;101181.75;;;1.63;80.84
13952;BME280;39535;52.192;9.886;2024-01-07T03:51:28;101175.06;;;1.70;81.01
13952;BME280;39535;52.192;9.886;2024-01-07T03:53:54;101174.06;;;1.65;81.27
13952;BME280;39535;52.192;9.886;2024-01-07T03:56:20;101172.59;;;1.73;80.70
13952;BME280;39535;52.192;9.886;2024-01-07T03:58:47;101186.84;;;1.62;79.81
13952;BME280;39535;52.192;9.886;2024-01-07T04:01:16;101208.41;;;1.65;79.60
13952;BME280;39535;52.192;9.886;2024-01-07T04:03:42;101237.38;;;1.59;79.49
13952;BME280;39535;52.192;9.886;2024-01-07T04:06:08;101249.03;;;1.48;78.34
13952;BME280;39535;52.192;9.886;2024-01-07T04:08:36;101261.16;;;1.52;78.98
13952;BME280;39535;52.192;9.886;2024-01-07T04:11:02;101272.44;;;1.56;79.16
13952;BME280;39535;52.192;9.886;2024-01-07T04:13:29;101264.72;;;1.56;79.10
13952;BME280;39535;52.192;9.886;2024-01-07T04:15:55;101278.41;;;1.55;79.37
13952;BME280;39535;52.192;9.886;2024-01-07T04:18:21;101288.72;;;1.56;78.95
13952;BME280;39535;52.192;9.886;2024-01-07T04:20:48;101291.16;;;1.52;79.67
13952;BME280;39535;52.192;9.886;2024-01-07T04:23:14;101296.31;;;1.52;79.27
13952;BME280;39535;52.192;9.886;2024-01-07T04:25:42;101293.81;;;1.53;78.85
13952;BME280;39535;52.192;9.886;2024-01-07T04:28:09;101298.84;;;1.50;78.83
13952;BME280;39535;52.192;9.886;2024-01-07T04:30:36;101303.25;;;1.54;78.69
13952;BME280;39535;52.192;9.886;2024-01-07T04:33:02;101310.03;;;1.51;78.58
13952;BME280;39535;52.192;9.886;2024-01-07T04:35:29;101328.13;;;1.54;78.07
13952;BME280;39535;52.192;9.886;2024-01-07T04:37:55;101334.72;;;1.46;78.51
13952;BME280;39535;52.192;9.886;2024-01-07T04:40:22;101330.19;;;1.38;78.76
13952;BME280;39535;52.192;9.886;2024-01-07T04:42:50;101350.03;;;1.43;76.93
13952;BME280;39535;52.192;9.886;2024-01-07T04:45:16;101368.94;;;1.43;76.68
13952;BME280;39535;52.192;9.886;2024-01-07T04:47:42;101390.44;;;1.45;76.07
13952;BME280;39535;52.192;9.886;2024-01-07T04:50:09;101397.31;;;1.46;76.31
13952;BME280;39535;52.192;9.886;2024-01-07T04:52:35;101405.94;;;1.47;76.34
13952;BME280;39535;52.192;9.886;2024-01-07T04:55:01;101417.19;;;1.50;75.96
13952;BME280;39535;52.192;9.886;2024-01-07T04:57:28;101417.25;;;1.52;76.43
13952;BME280;39535;52.192;9.886;2024-01-07T04:59:56;101422.78;;;1.38;76.40
13952;BME280;39535;52.192;9.886;2024-01-07T05:02:22;101425.41;;;1.40;76.06
13952;BME280;39535;52.192;9.886;2024-01-07T05:04:48;101448.78;;;1.46;75.17
13952;BME280;39535;52.192;9.886;2024-01-07T05:07:15;101458.19;;;1.46;74.47
13952;BME280;39535;52.192;9.886;2024-01-07T05:09:41;101484.84;;;1.48;74.17
13952;BME280;39535;52.192;9.886;2024-01-07T05:12:08;101492.56;;;1.48;74.19
13952;BME280;39535;52.192;9.886;2024-01-07T05:14:34;101512.09;;;1.43;74.30
13952;BME280;39535;52.192;9.886;2024-01-07T05:17:03;101515.59;;;1.45;74.11
13952;BME280;39535;52.192;9.886;2024-01-07T05:19:30;101530.88;;;1.40;74.56
13952;BME280;39535;52.192;9.886;2024-01-07T05:21:58;101534.31;;;1.41;74.27
13952;BME280;39535;52.192;9.886;2024-01-07T05:24:24;101564.03;;;1.32;73.17
13952;BME280;39535;52.192;9.886;2024-01-07T05:26:50;101576.16;;;1.35;73.34
13952;BME280;39535;52.192;9.886;2024-01-07T05:29:17;101582.88;;;1.31;73.14
13952;BME280;39535;52.192;9.886;2024-01-07T05:31:43;101591.66;;;1.14;73.32
13952;BME280;39535;52.192;9.886;2024-01-07T05:34:11;101573.88;;;1.20;73.79
13952;BME280;39535;52.192;9.886;2024-01-07T05:36:37;101575.81;;;1.26;74.32
13952;BME280;39535;52.192;9.886;2024-01-07T05:39:04;101577.50;;;1.25;74.43
13952;BME280;39535;52.192;9.886;2024-01-07T05:41:32;101576.03;;;1.32;74.05
13952;BME280;39535;52.192;9.886;2024-01-07T05:43:58;101577.75;;;1.31;74.09
13952;BME280;39535;52.192;9.886;2024-01-07T05:46:25;101590.41;;;1.27;73.46
13952;BME280;39535;52.192;9.886;2024-01-07T05:48:51;101600.59;;;1.24;72.39
13952;BME280;39535;52.192;9.886;2024-01-07T05:51:19;101627.78;;;1.17;72.35
13952;BME280;39535;52.192;9.886;2024-01-07T05:53:45;101636.44;;;1.19;72.19
13952;BME280;39535;52.192;9.886;2024-01-07T05:56:12;101654.47;;;1.21;72.17
13952;BME280;39535;52.192;9.886;2024-01-07T05:58:38;101652.81;;;1.21;72.89
13952;BME280;39535;52.192;9.886;2024-01-07T06:01:05;101661.66;;;1.07;72.13
13952;BME280;39535;52.192;9.886;2024-01-07T06:03:33;101665.34;;;1.13;71.34
13952;BME280;39535;52.192;9.886;2024-01-07T06:05:59;101689.56;;;0.97;71.63
13952;BME280;39535;52.192;9.886;2024-01-07T06:08:27;101693.50;;;1.10;70.72
13952;BME280;39535;52.192;9.886;2024-01-07T06:10:54;101708.16;;;1.13;71.57
13952;BME280;39535;52.192;9.886;2024-01-07T06:13:20;101713.28;;;1.11;70.67
13952;BME280;39535;52.192;9.886;2024-01-07T06:15:46;101719.03;;;1.06;71.72
13952;BME280;39535;52.192;9.886;2024-01-07T06:18:13;101723.94;;;0.99;70.78
13952;BME280;39535;52.192;9.886;2024-01-07T06:20:39;101730.97;;;1.04;70.61
13952;BME280;39535;52.192;9.886;2024-01-07T06:23:05;101736.78;;;0.99;71.38
13952;BME280;39535;52.192;9.886;2024-01-07T06:25:33;101755.59;;;0.98;70.47
13952;BME280;39535;52.192;9.886;2024-01-07T06:28:00;101773.50;;;0.97;70.27
13952;BME280;39535;52.192;9.886;2024-01-07T06:30:26;101784.63;;;0.96;69.70
13952;BME280;39535;52.192;9.886;2024-01-07T06:32:53;101795.59;;;0.92;69.64
13952;BME280;39535;52.192;9.886;2024-01-07T06:35:19;101800.66;;;0.90;70.17
13952;BME280;39535;52.192;9.886;2024-01-07T06:37:46;101805.72;;;0.89;70.63
13952;BME280;39535;52.192;9.886;2024-01-07T06:40:12;101812.06;;;0.97;70.29
13952;BME280;39535;52.192;9.886;2024-01-07T06:42:40;101816.53;;;1.01;70.33
13952;BME280;39535;52.192;9.886;2024-01-07T06:45:09;101821.50;;;0.96;69.77
13952;BME280;39535;52.192;9.886;2024-01-07T06:47:35;101824.94;;;0.97;70.30
13952;BME280;39535;52.192;9.886;2024-01-07T06:50:03;101817.88;;;0.91;70.82
13952;BME280;39535;52.192;9.886;2024-01-07T06:52:29;101824.13;;;0.98;69.96
13952;BME280;39535;52.192;9.886;2024-01-07T06:54:56;101829.44;;;0.82;70.32
13952;BME280;39535;52.192;9.886;2024-01-07T06:57:22;101832.88;;;0.82;69.97
13952;BME280;39535;52.192;9.886;2024-01-07T06:59:50;101836.22;;;0.79;70.35
13952;BME280;39535;52.192;9.886;2024-01-07T07:02:17;101849.31;;;0.86;70.01
13952;BME280;39535;52.192;9.886;2024-01-07T07:04:43;101863.66;;;0.81;69.01
13952;BME280;39535;52.192;9.886;2024-01-07T07:07:09;101876.22;;;0.74;69.48
13952;BME280;39535;52.192;9.886;2024-01-07T07:09:36;101876.22;;;0.74;69.94
13952;BME280;39535;52.192;9.886;2024-01-07T07:12:02;101884.47;;;0.67;70.19
13952;BME280;39535;52.192;9.886;2024-01-07T07:14:29;101887.25;;;0.72;69.95
13952;BME280;39535;52.192;9.886;2024-01-07T07:16:56;101876.50;;;0.81;70.74
13952;BME280;39535;52.192;9.886;2024-01-07T07:19:23;101870.34;;;0.77;70.56
13952;BME280;39535;52.192;9.886;2024-01-07T07:21:49;101883.94;;;0.74;71.04
13952;BME280;39535;52.192;9.886;2024-01-07T07:24:15;101878.03;;;0.77;70.74
13952;BME280;39535;52.192;9.886;2024-01-07T07:26:42;101880.78;;;0.80;70.64
13952;BME280;39535;52.192;9.886;2024-01-07T07:29:08;101896.94;;;0.77;69.98
13952;BME280;39535;52.192;9.886;2024-01-07T07:31:35;101900.50;;;0.81;70.22
13952;BME280;39535;52.192;9.886;2024-01-07T07:34:05;101899.81;;;0.85;69.83
13952;BME280;39535;52.192;9.886;2024-01-07T07:36:32;101899.72;;;0.82;69.56
13952;BME280;39535;52.192;9.886;2024-01-07T07:38:58;101904.84;;;0.82;69.88
13952;BME280;39535;52.192;9.886;2024-01-07T07:41:24;101918.44;;;0.79;69.73
13952;BME280;39535;52.192;9.886;2024-01-07T07:43:51;101911.25;;;0.72;69.96
13952;BME280;39535;52.192;9.886;2024-01-07T07:46:17;101914.09;;;0.78;69.74
13952;BME280;39535;52.192;9.886;2024-01-07T07:48:43;101921.63;;;0.74;69.97
13952;BME280;39535;52.192;9.886;2024-01-07T07:51:11;101931.16;;;0.76;69.06
13952;BME280;39535;52.192;9.886;2024-01-07T07:53:38;101948.28;;;0.76;68.88
13952;BME280;39535;52.192;9.886;2024-01-07T07:56:05;101955.03;;;0.74;68.88
13952;BME280;39535;52.192;9.886;2024-01-07T07:58:33;101961.13;;;0.76;69.65
13952;BME280;39535;52.192;9.886;2024-01-07T08:01:00;101962.19;;;0.81;69.25
13952;BME280;39535;52.192;9.886;2024-01-07T08:03:27;101975.13;;;0.83;68.58
13952;BME280;39535;52.192;9.886;2024-01-07T08:05:53;101973.22;;;0.78;69.17
13952;BME280;39535;52.192;9.886;2024-01-07T08:08:21;101977.56;;;0.79;69.47
13952;BME280;39535;52.192;9.886;2024-01-07T08:10:47;101970.53;;;0.75;70.32
13952;BME280;39535;52.192;9.886;2024-01-07T08:13:14;101973.38;;;0.82;69.34
13952;BME280;39535;52.192;9.886;2024-01-07T08:15:40;101992.22;;;0.82;68.77
13952;BME280;39535;52.192;9.886;2024-01-07T08:18:06;101993.94;;;0.82;69.22
13952;BME280;39535;52.192;9.886;2024-01-07T08:20:33;101999.19;;;0.85;68.99
13952;BME280;39535;52.192;9.886;2024-01-07T08:22:59;102005.88;;;0.81;70.01
13952;BME280;39535;52.192;9.886;2024-01-07T08:25:27;101998.06;;;0.78;70.74
13952;BME280;39535;52.192;9.886;2024-01-07T08:27:54;101980.41;;;0.86;70.18
13952;BME280;39535;52.192;9.886;2024-01-07T08:30:20;101978.78;;;0.88;70.54
13952;BME280;39535;52.192;9.886;2024-01-07T08:32:46;101983.94;;;0.88;69.90
13952;BME280;39535;52.192;9.886;2024-01-07T08:35:13;101988.16;;;0.87;70.32
13952;BME280;39535;52.192;9.886;2024-01-07T08:37:39;101989.16;;;0.89;69.97
13952;BME280;39535;52.192;9.886;2024-01-07T08:40:07;101988.25;;;0.89;69.52
13952;BME280;39535;52.192;9.886;2024-01-07T08:42:36;101995.88;;;0.87;70.74
13952;BME280;39535;52.192;9.886;2024-01-07T08:45:03;101994.34;;;0.91;70.43
13952;BME280;39535;52.192;9.886;2024-01-07T08:47:30;101992.34;;;0.85;70.21
13952;BME280;39535;52.192;9.886;2024-01-07T08:49:57;101987.38;;;0.88;71.08
13952;BME280;39535;52.192;9.886;2024-01-07T08:52:24;101987.53;;;0.91;70.41
13952;BME280;39535;52.192;9.886;2024-01-07T08:54:50;101987.72;;;0.96;70.67
13952;BME280;39535;52.192;9.886;2024-01-07T08:57:18;101979.13;;;0.95;70.42
13952;BME280;39535;52.192;9.886;2024-01-07T08:59:46;101984.28;;;0.95;70.04
13952;BME280;39535;52.192;9.886;2024-01-07T09:02:13;102003.16;;;0.96;69.85
13952;BME280;39535;52.192;9.886;2024-01-07T09:04:39;102006.50;;;0.95;70.75
13952;BME280;39535;52.192;9.886;2024-01-07T09:07:06;102009.91;;;0.94;69.97
13952;BME280;39535;52.192;9.886;2024-01-07T09:09:32;102010.72;;;0.93;70.53
13952;BME280;39535;52.192;9.886;2024-01-07T09:11:59;102011.47;;;0.90;71.02
13952;BME280;39535;52.192;9.886;2024-01-07T09:14:26;102007.53;;;0.98;71.17
13952;BME280;39535;52.192;9.886;2024-01-07T09:16:53;102001.72;;;1.03;71.26
13952;BME280;39535;52.192;9.886;2024-01-07T09:19:20;102012.84;;;1.02;70.69
13952;BME280;39535;52.192;9.886;2024-01-07T09:21:47;102033.84;;;0.93;69.90
13952;BME280;39535;52.192;9.886;2024-01-07T09:24:13;102027.84;;;0.92;71.37
13952;BME280;39535;52.192;9.886;2024-01-07T09:26:40;102012.56;;;0.95;71.26
13952;BME280;39535;52.192;9.886;2024-01-07T09:29:06;102014.47;;;0.99;71.39
13952;BME280;39535;52.192;9.886;2024-01-07T09:31:33;102007.78;;;1.03;71.74
13952;BME280;39535;52.192;9.886;2024-01-07T09:34:00;102009.44;;;1.03;71.57
13952;BME280;39535;52.192;9.886;2024-01-07T09:36:29;102006.78;;;1.01;71.97
13952;BME280;39535;52.192;9.886;2024-01-07T09:38:55;101996.72;;;1.06;71.84
13952;BME280;39535;52.192;9.886;2024-01-07T09:41:22;102002.63;;;1.03;71.35
13952;BME280;39535;52.192;9.886;2024-01-07T09:43:48;102007.81;;;1.05;70.58
13952;BME280;39535;52.192;9.886;2024-01-07T09:46:15;102011.34;;;1.07;71.56
13952;BME280;39535;52.192;9.886;2024-01-07T09:48:42;102010.47;;;1.06;71.98
13952;BME280;39535;52.192;9.886;2024-01-07T09:51:11;102005.25;;;1.05;71.91
13952;BME280;39535;52.192;9.886;2024-01-07T09:53:38;102006.16;;;1.05;71.08
13952;BME280;39535;52.192;9.886;2024-01-07T09:56:11;102005.41;;;1.08;71.28
13952;BME280;39535;52.192;9.886;2024-01-07T09:58:41;102020.66;;;1.05;70.66
13952;BME280;39535;52.192;9.886;2024-01-07T10:01:08;102025.88;;;1.06;70.93
13952;BME280;39535;52.192;9.886;2024-01-07T10:03:34;102027.66;;;1.07;71.73
13952;BME280;39535;52.192;9.886;2024-01-07T10:06:01;102024.94;;;1.04;71.40
13952;BME280;39535;52.192;9.886;2024-01-07T10:08:29;102023.47;;;1.09;71.05
13952;BME280;39535;52.192;9.886;2024-01-07T10:10:57;102025.81;;;1.05;72.19
13952;BME280;39535;52.192;9.886;2024-01-07T10:13:24;102023.19;;;1.03;71.68
13952;BME280;39535;52.192;9.886;2024-01-07T10:15:50;102027.31;;;0.99;71.40
13952;BME280;39535;52.192;9.886;2024-01-07T10:18:18;102027.44;;;1.03;71.43
13952;BME280;39535;52.192;9.886;2024-01-07T10:20:44;102019.59;;;0.99;72.23
13952;BME280;39535;52.192;9.886;2024-01-07T10:23:11;102008.66;;;1.04;71.24
13952;BME280;39535;52.192;9.886;2024-01-07T10:25:39;102016.34;;;1.04;71.01
13952;BME280;39535;52.192;9.886;2024-01-07T10:28:05;102019.59;;;0.99;71.33
13952;BME280;39535;52.192;9.886;2024-01-07T10:30:41;102019.81;;;1.04;71.43
13952;BME280;39535;52.192;9.886;2024-01-07T10:33:22;102017.31;;;1.06;71.83
13952;BME280;39535;52.192;9.886;2024-01-07T10:35:56;102013.19;;;1.09;71.77
13952;BME280;39535;52.192;9.886;2024-01-07T10:38:28;102009.88;;;1.12;72.06
13952;BME280;39535;52.192;9.886;2024-01-07T10:40:59;102013.31;;;1.12;71.40
13952;BME280;39535;52.192;9.886;2024-01-07T10:43:29;102018.44;;;1.12;70.83
13952;BME280;39535;52.192;9.886;2024-01-07T10:46:01;102024.53;;;1.14;71.59
13952;BME280;39535;52.192;9.886;2024-01-07T10:48:30;102020.44;;;1.18;71.22
13952;BME280;39535;52.192;9.886;2024-01-07T10:51:03;102019.63;;;1.19;71.27
13952;BME280;39535;52.192;9.886;2024-01-07T10:53:35;102023.81;;;1.17;71.63
13952;BME280;39535;52.192;9.886;2024-01-07T10:56:11;102020.63;;;1.23;71.77
13952;BME280;39535;52.192;9.886;2024-01-07T10:58:54;102014.00;;;1.28;71.73
13952;BME280;39535;52.192;9.886;2024-01-07T11:01:24;102008.97;;;1.31;72.24
13952;BME280;39535;52.192;9.886;2024-01-07T11:03:58;102007.31;;;1.31;73.06
13952;BME280;39535;52.192;9.886;2024-01-07T11:06:30;101999.78;;;1.36;72.04
13952;BME280;39535;52.192;9.886;2024-01-07T11:09:00;102010.34;;;1.42;71.53
13952;BME280;39535;52.192;9.886;2024-01-07T11:11:35;102014.72;;;1.45;71.58
13952;BME280;39535;52.192;9.886;2024-01-07T11:14:36;102024.75;;;1.38;71.42
13952;BME280;39535;52.192;9.886;2024-01-07T11:17:05;102024.03;;;1.41;71.62
13952;BME280;39535;52.192;9.886;2024-01-07T11:19:34;102032.69;;;1.43;71.21
13952;BME280;39535;52.192;9.886;2024-01-07T11:22:23;102023.28;;;1.44;71.96
13952;BME280;39535;52.192;9.886;2024-01-07T11:24:53;102018.31;;;1.48;72.65
13952;BME280;39535;52.192;9.886;2024-01-07T11:27:22;101993.78;;;1.56;72.46
13952;BME280;39535;52.192;9.886;2024-01-07T11:29:53;101993.06;;;1.59;71.83
13952;BME280;39535;52.192;9.886;2024-01-07T11:32:22;102003.53;;;1.64;71.44
13952;BME280;39535;52.192;9.886;2024-01-07T11:34:56;101995.56;;;1.57;72.55
13952;BME280;39535;52.192;9.886;2024-01-07T11:37:25;101997.19;;;1.55;72.27
13952;BME280;39535;52.192;9.886;2024-01-07T11:39:59;102003.09;;;1.53;71.62
13952;BME280;39535;52.192;9.886;2024-01-07T11:42:31;101983.56;;;1.58;72.10
13952;BME280;39535;52.192;9.886;2024-01-07T11:45:01;101998.94;;;1.56;71.46
13952;BME280;39535;52.192;9.886;2024-01-07T11:47:31;102011.00;;;1.57;71.89
13952;BME280;39535;52.192;9.886;2024-01-07T11:50:03;102011.00;;;1.57;71.87
13952;BME280;39535;52.192;9.886;2024-01-07T11:52:33;102013.50;;;1.56;71.49
13952;BME280;39535;52.192;9.886;2024-01-07T11:55:03;102020.16;;;1.51;71.84
13952;BME280;39535;52.192;9.886;2024-01-07T11:57:34;102025.16;;;1.48;70.88
13952;BME280;39535;52.192;9.886;2024-01-07T12:00:04;102024.03;;;1.41;72.06
13952;BME280;39535;52.192;9.886;2024-01-07T12:02:31;102019.84;;;1.43;71.82
13952;BME280;39535;52.192;9.886;2024-01-07T12:04:57;102009.72;;;1.48;72.36
13952;BME280;39535;52.192;9.886;2024-01-07T12:07:24;101992.84;;;1.54;72.65
13952;BME280;39535;52.192;9.886;2024-01-07T12:09:59;101990.50;;;1.59;72.46
13952;BME280;39535;52.192;9.886;2024-01-07T12:12:26;101987.16;;;1.62;72.72
13952;BME280;39535;52.192;9.886;2024-01-07T12:14:54;101994.00;;;1.61;72.70
13952;BME280;39535;52.192;9.886;2024-01-07T12:17:23;101986.28;;;1.61;72.86
13952;BME280;39535;52.192;9.886;2024-01-07T12:19:50;102001.72;;;1.61;72.00
13952;BME280;39535;52.192;9.886;2024-01-07T12:22:19;101990.59;;;1.62;72.54
13952;BME280;39535;52.192;9.886;2024-01-07T12:24:54;101993.13;;;1.61;72.86
13952;BME280;39535;52.192;9.886;2024-01-07T12:27:25;101992.06;;;1.55;72.54
13952;BME280;39535;52.192;9.886;2024-01-07T12:29:55;101988.88;;;1.42;73.91
13952;BME280;39535;52.192;9.886;2024-01-07T12:32:25;101969.84;;;1.38;73.70
13952;BME280;39535;52.192;9.886;2024-01-07T12:34:56;101962.28;;;1.41;74.26
13952;BME280;39535;52.192;9.886;2024-01-07T12:37:26;101947.72;;;1.42;74.33
13952;BME280;39535;52.192;9.886;2024-01-07T12:39:56;101949.28;;;1.38;74.57
13952;BME280;39535;52.192;9.886;2024-01-07T12:42:23;101942.44;;;1.38;74.77
13952;BME280;39535;52.192;9.886;2024-01-07T12:45:01;101947.81;;;1.24;73.99
13952;BME280;39535;52.192;9.886;2024-01-07T12:47:28;101934.94;;;1.24;75.15
13952;BME280;39535;52.192;9.886;2024-01-07T12:50:10;101917.13;;;1.28;75.35
13952;BME280;39535;52.192;9.886;2024-01-07T12:52:48;101913.78;;;1.31;75.41
13952;BME280;39535;52.192;9.886;2024-01-07T12:55:22;101905.28;;;1.32;75.51
13952;BME280;39535;52.192;9.886;2024-01-07T12:57:48;101900.22;;;1.33;75.13
13952;BME280;39535;52.192;9.886;2024-01-07T13:00:17;101892.69;;;1.38;75.67
13952;BME280;39535;52.192;9.886;2024-01-07T13:02:43;101887.66;;;1.41;75.92